Santa Elena, Texas
Current Conditions -  °F | °C
As of 6:35 AM on Monday 20 Oct 2014 (Local Time) from KEBG Reporting Station
Scattered Clouds Scattered Clouds  
Wind Chill: 69°   Ceiling: Unl
Heat Index: 69°   Visibility: 10mi
Dew Point: 66°   Wind: 3mph
Humidity: 89%   Direction: 10°N
Pressure: 29.93"   Gusts: NA
Location:  26.76°N, 98.49°W
Report Text: KEBG 201135Z AUTO 01003KT 10SM SCT055 21/19 A2993 RMK AO2 T02050187
Loading
Personal Weather Stations






























Interactive Weather Map New forecast layout! Learn more

10-Day Weather Forecast

Advertisements
Track Severe Weather on mobile